sensor_id;sensor_type;location;lat;lon;timestamp;P1;durP1;ratioP1;P2;durP2;ratioP2
58196;SDS011;43999;51.660;5.616;2022-12-18T00:01:31;56.28;;;36.67;;
58196;SDS011;43999;51.660;5.616;2022-12-18T00:04:01;55.28;;;34.75;;
58196;SDS011;43999;51.660;5.616;2022-12-18T00:06:32;50.38;;;33.42;;
58196;SDS011;43999;51.660;5.616;2022-12-18T00:09:01;58.05;;;36.45;;
58196;SDS011;43999;51.660;5.616;2022-12-18T00:11:30;50.60;;;32.95;;
58196;SDS011;43999;51.660;5.616;2022-12-18T00:13:58;49.88;;;33.55;;
58196;SDS011;43999;51.660;5.616;2022-12-18T00:16:27;50.03;;;34.78;;
58196;SDS011;43999;51.660;5.616;2022-12-18T00:18:56;50.28;;;34.28;;
58196;SDS011;43999;51.660;5.616;2022-12-18T00:21:25;50.08;;;35.13;;
58196;SDS011;43999;51.660;5.616;2022-12-18T00:23:56;57.08;;;35.90;;
58196;SDS011;43999;51.660;5.616;2022-12-18T00:26:29;50.70;;;34.10;;
58196;SDS011;43999;51.660;5.616;2022-12-18T00:29:01;55.30;;;40.47;;
58196;SDS011;43999;51.660;5.616;2022-12-18T00:31:36;53.03;;;38.08;;
58196;SDS011;43999;51.660;5.616;2022-12-18T00:34:04;56.65;;;36.63;;
58196;SDS011;43999;51.660;5.616;2022-12-18T00:36:32;53.85;;;36.92;;
58196;SDS011;43999;51.660;5.616;2022-12-18T00:39:02;54.25;;;35.65;;
58196;SDS011;43999;51.660;5.616;2022-12-18T00:41:31;56.67;;;35.13;;
58196;SDS011;43999;51.660;5.616;2022-12-18T00:44:17;58.53;;;36.55;;
58196;SDS011;43999;51.660;5.616;2022-12-18T00:46:46;45.97;;;32.85;;
58196;SDS011;43999;51.660;5.616;2022-12-18T00:49:18;53.75;;;34.80;;
58196;SDS011;43999;51.660;5.616;2022-12-18T00:51:46;56.92;;;36.38;;
58196;SDS011;43999;51.660;5.616;2022-12-18T00:54:15;53.42;;;34.47;;
58196;SDS011;43999;51.660;5.616;2022-12-18T00:56:43;55.65;;;33.80;;
58196;SDS011;43999;51.660;5.616;2022-12-18T00:59:15;55.13;;;35.67;;
58196;SDS011;43999;51.660;5.616;2022-12-18T01:01:44;54.13;;;33.97;;
58196;SDS011;43999;51.660;5.616;2022-12-18T01:04:12;52.40;;;36.25;;
58196;SDS011;43999;51.660;5.616;2022-12-18T01:06:43;52.53;;;34.42;;
58196;SDS011;43999;51.660;5.616;2022-12-18T01:09:11;51.08;;;34.35;;
58196;SDS011;43999;51.660;5.616;2022-12-18T01:11:39;50.78;;;34.75;;
58196;SDS011;43999;51.660;5.616;2022-12-18T01:14:06;44.47;;;32.58;;
58196;SDS011;43999;51.660;5.616;2022-12-18T01:16:36;46.40;;;32.67;;
58196;SDS011;43999;51.660;5.616;2022-12-18T01:19:04;51.25;;;35.15;;
58196;SDS011;43999;51.660;5.616;2022-12-18T01:21:32;54.40;;;36.33;;
58196;SDS011;43999;51.660;5.616;2022-12-18T01:24:02;47.72;;;33.47;;
58196;SDS011;43999;51.660;5.616;2022-12-18T01:26:30;51.67;;;32.13;;
58196;SDS011;43999;51.660;5.616;2022-12-18T01:28:58;44.97;;;33.30;;
58196;SDS011;43999;51.660;5.616;2022-12-18T01:31:27;56.05;;;35.08;;
58196;SDS011;43999;51.660;5.616;2022-12-18T01:33:57;53.97;;;32.58;;
58196;SDS011;43999;51.660;5.616;2022-12-18T01:36:29;43.40;;;31.42;;
58196;SDS011;43999;51.660;5.616;2022-12-18T01:38:59;44.45;;;31.65;;
58196;SDS011;43999;51.660;5.616;2022-12-18T01:41:31;48.22;;;33.33;;
58196;SDS011;43999;51.660;5.616;2022-12-18T01:47:20;51.38;;;30.40;;
58196;SDS011;43999;51.660;5.616;2022-12-18T01:49:54;51.40;;;32.30;;
58196;SDS011;43999;51.660;5.616;2022-12-18T01:52:26;49.97;;;29.65;;
58196;SDS011;43999;51.660;5.616;2022-12-18T01:54:55;44.70;;;30.10;;
58196;SDS011;43999;51.660;5.616;2022-12-18T01:57:24;42.72;;;27.48;;
58196;SDS011;43999;51.660;5.616;2022-12-18T01:59:53;38.47;;;29.85;;
58196;SDS011;43999;51.660;5.616;2022-12-18T02:02:38;47.60;;;32.08;;
58196;SDS011;43999;51.660;5.616;2022-12-18T02:05:07;42.88;;;30.48;;
58196;SDS011;43999;51.660;5.616;2022-12-18T02:07:42;43.90;;;28.60;;
58196;SDS011;43999;51.660;5.616;2022-12-18T02:19:19;38.03;;;28.45;;
58196;SDS011;43999;51.660;5.616;2022-12-18T02:22:59;40.05;;;29.80;;
58196;SDS011;43999;51.660;5.616;2022-12-18T02:28:34;47.33;;;32.25;;
58196;SDS011;43999;51.660;5.616;2022-12-18T02:33:41;43.85;;;26.73;;
58196;SDS011;43999;51.660;5.616;2022-12-18T02:36:12;43.38;;;29.17;;
58196;SDS011;43999;51.660;5.616;2022-12-18T02:38:43;35.83;;;26.65;;
58196;SDS011;43999;51.660;5.616;2022-12-18T02:41:14;37.55;;;25.90;;
58196;SDS011;43999;51.660;5.616;2022-12-18T02:43:49;38.90;;;27.58;;
58196;SDS011;43999;51.660;5.616;2022-12-18T02:48:57;37.22;;;27.00;;
58196;SDS011;43999;51.660;5.616;2022-12-18T02:52:25;38.90;;;24.80;;
58196;SDS011;43999;51.660;5.616;2022-12-18T02:58:06;34.65;;;25.90;;
58196;SDS011;43999;51.660;5.616;2022-12-18T03:04:45;36.63;;;25.70;;
58196;SDS011;43999;51.660;5.616;2022-12-18T03:07:30;35.60;;;25.08;;
58196;SDS011;43999;51.660;5.616;2022-12-18T03:10:11;42.75;;;27.83;;
58196;SDS011;43999;51.660;5.616;2022-12-18T03:12:45;38.65;;;23.73;;
58196;SDS011;43999;51.660;5.616;2022-12-18T03:15:35;34.72;;;26.98;;
58196;SDS011;43999;51.660;5.616;2022-12-18T03:18:13;37.30;;;26.52;;
58196;SDS011;43999;51.660;5.616;2022-12-18T03:21:08;36.17;;;23.55;;
58196;SDS011;43999;51.660;5.616;2022-12-18T03:23:49;38.45;;;24.70;;
58196;SDS011;43999;51.660;5.616;2022-12-18T03:26:23;37.17;;;24.52;;
58196;SDS011;43999;51.660;5.616;2022-12-18T03:28:59;38.80;;;26.55;;
58196;SDS011;43999;51.660;5.616;2022-12-18T03:31:45;32.45;;;23.40;;
58196;SDS011;43999;51.660;5.616;2022-12-18T03:34:38;37.95;;;23.90;;
58196;SDS011;43999;51.660;5.616;2022-12-18T03:37:11;32.58;;;24.67;;
58196;SDS011;43999;51.660;5.616;2022-12-18T03:39:39;30.80;;;23.10;;
58196;SDS011;43999;51.660;5.616;2022-12-18T03:42:09;30.70;;;22.67;;
58196;SDS011;43999;51.660;5.616;2022-12-18T03:45:26;32.90;;;24.45;;
58196;SDS011;43999;51.660;5.616;2022-12-18T03:48:16;37.85;;;26.20;;
58196;SDS011;43999;51.660;5.616;2022-12-18T03:54:13;34.08;;;24.90;;
58196;SDS011;43999;51.660;5.616;2022-12-18T03:56:52;31.38;;;22.42;;
58196;SDS011;43999;51.660;5.616;2022-12-18T03:59:28;28.30;;;20.98;;
58196;SDS011;43999;51.660;5.616;2022-12-18T04:01:57;36.45;;;23.75;;
58196;SDS011;43999;51.660;5.616;2022-12-18T04:04:28;25.90;;;20.60;;
58196;SDS011;43999;51.660;5.616;2022-12-18T04:07:00;33.75;;;23.08;;
58196;SDS011;43999;51.660;5.616;2022-12-18T04:09:29;30.33;;;20.08;;
58196;SDS011;43999;51.660;5.616;2022-12-18T04:11:58;28.83;;;21.95;;
58196;SDS011;43999;51.660;5.616;2022-12-18T04:14:26;27.60;;;18.95;;
58196;SDS011;43999;51.660;5.616;2022-12-18T04:16:55;28.35;;;20.48;;
58196;SDS011;43999;51.660;5.616;2022-12-18T04:19:28;28.77;;;21.40;;
58196;SDS011;43999;51.660;5.616;2022-12-18T04:21:56;25.77;;;19.35;;
58196;SDS011;43999;51.660;5.616;2022-12-18T04:24:25;27.10;;;18.38;;
58196;SDS011;43999;51.660;5.616;2022-12-18T04:27:03;28.38;;;20.75;;
58196;SDS011;43999;51.660;5.616;2022-12-18T04:29:38;28.85;;;19.23;;
58196;SDS011;43999;51.660;5.616;2022-12-18T04:32:05;28.50;;;19.35;;
58196;SDS011;43999;51.660;5.616;2022-12-18T04:34:33;25.35;;;20.00;;
58196;SDS011;43999;51.660;5.616;2022-12-18T04:37:01;26.13;;;20.15;;
58196;SDS011;43999;51.660;5.616;2022-12-18T04:39:29;33.80;;;21.38;;
58196;SDS011;43999;51.660;5.616;2022-12-18T04:42:02;24.38;;;19.40;;
58196;SDS011;43999;51.660;5.616;2022-12-18T04:44:31;25.23;;;18.70;;
58196;SDS011;43999;51.660;5.616;2022-12-18T04:46:58;26.20;;;19.35;;
58196;SDS011;43999;51.660;5.616;2022-12-18T04:49:25;28.80;;;18.30;;
58196;SDS011;43999;51.660;5.616;2022-12-18T04:51:53;24.27;;;17.88;;
58196;SDS011;43999;51.660;5.616;2022-12-18T04:54:20;27.88;;;19.67;;
58196;SDS011;43999;51.660;5.616;2022-12-18T04:56:49;24.63;;;20.83;;
58196;SDS011;43999;51.660;5.616;2022-12-18T04:59:16;26.65;;;18.27;;
58196;SDS011;43999;51.660;5.616;2022-12-18T05:01:44;22.30;;;18.20;;
58196;SDS011;43999;51.660;5.616;2022-12-18T05:04:12;22.48;;;16.63;;
58196;SDS011;43999;51.660;5.616;2022-12-18T05:06:39;28.13;;;18.55;;
58196;SDS011;43999;51.660;5.616;2022-12-18T05:09:07;28.17;;;22.85;;
58196;SDS011;43999;51.660;5.616;2022-12-18T05:11:34;22.00;;;17.45;;
58196;SDS011;43999;51.660;5.616;2022-12-18T05:14:02;24.27;;;18.92;;
58196;SDS011;43999;51.660;5.616;2022-12-18T05:16:30;25.55;;;18.40;;
58196;SDS011;43999;51.660;5.616;2022-12-18T05:18:57;27.05;;;18.27;;
58196;SDS011;43999;51.660;5.616;2022-12-18T05:21:25;26.40;;;19.25;;
58196;SDS011;43999;51.660;5.616;2022-12-18T05:23:52;26.45;;;17.35;;
58196;SDS011;43999;51.660;5.616;2022-12-18T05:26:20;21.58;;;17.25;;
58196;SDS011;43999;51.660;5.616;2022-12-18T05:28:47;22.98;;;17.75;;
58196;SDS011;43999;51.660;5.616;2022-12-18T05:31:15;25.50;;;17.27;;
58196;SDS011;43999;51.660;5.616;2022-12-18T05:33:42;21.17;;;18.25;;
58196;SDS011;43999;51.660;5.616;2022-12-18T05:36:10;27.85;;;18.52;;
58196;SDS011;43999;51.660;5.616;2022-12-18T05:38:38;21.92;;;16.92;;
58196;SDS011;43999;51.660;5.616;2022-12-18T05:41:06;25.40;;;17.40;;
58196;SDS011;43999;51.660;5.616;2022-12-18T05:43:35;23.40;;;17.65;;
58196;SDS011;43999;51.660;5.616;2022-12-18T05:46:06;21.15;;;18.20;;
58196;SDS011;43999;51.660;5.616;2022-12-18T05:48:37;26.10;;;17.88;;
58196;SDS011;43999;51.660;5.616;2022-12-18T05:51:12;24.73;;;17.10;;
58196;SDS011;43999;51.660;5.616;2022-12-18T05:53:42;25.60;;;18.50;;
58196;SDS011;43999;51.660;5.616;2022-12-18T05:56:11;26.50;;;21.40;;
58196;SDS011;43999;51.660;5.616;2022-12-18T05:58:45;27.50;;;21.40;;
58196;SDS011;43999;51.660;5.616;2022-12-18T06:01:23;24.15;;;17.27;;
58196;SDS011;43999;51.660;5.616;2022-12-18T06:03:53;22.52;;;17.02;;
58196;SDS011;43999;51.660;5.616;2022-12-18T06:06:22;26.73;;;20.45;;
58196;SDS011;43999;51.660;5.616;2022-12-18T06:08:55;23.00;;;18.42;;
58196;SDS011;43999;51.660;5.616;2022-12-18T06:11:23;26.92;;;19.55;;
58196;SDS011;43999;51.660;5.616;2022-12-18T06:13:53;22.58;;;16.60;;
58196;SDS011;43999;51.660;5.616;2022-12-18T06:16:25;24.02;;;20.80;;
58196;SDS011;43999;51.660;5.616;2022-12-18T06:19:00;25.48;;;17.15;;
58196;SDS011;43999;51.660;5.616;2022-12-18T06:21:31;19.20;;;14.18;;
58196;SDS011;43999;51.660;5.616;2022-12-18T06:23:59;24.70;;;18.08;;
58196;SDS011;43999;51.660;5.616;2022-12-18T06:26:26;30.08;;;20.40;;
58196;SDS011;43999;51.660;5.616;2022-12-18T06:28:54;24.40;;;18.17;;
58196;SDS011;43999;51.660;5.616;2022-12-18T06:31:21;28.83;;;18.13;;
58196;SDS011;43999;51.660;5.616;2022-12-18T06:33:49;22.50;;;17.25;;
58196;SDS011;43999;51.660;5.616;2022-12-18T06:36:17;23.23;;;18.90;;
58196;SDS011;43999;51.660;5.616;2022-12-18T06:38:44;25.50;;;19.60;;
58196;SDS011;43999;51.660;5.616;2022-12-18T06:41:13;24.48;;;16.20;;
58196;SDS011;43999;51.660;5.616;2022-12-18T06:43:46;24.15;;;17.73;;
58196;SDS011;43999;51.660;5.616;2022-12-18T06:46:14;28.83;;;20.65;;
58196;SDS011;43999;51.660;5.616;2022-12-18T06:48:41;25.58;;;19.50;;
58196;SDS011;43999;51.660;5.616;2022-12-18T06:51:10;27.80;;;19.67;;
58196;SDS011;43999;51.660;5.616;2022-12-18T06:53:37;23.70;;;17.73;;
58196;SDS011;43999;51.660;5.616;2022-12-18T06:56:06;24.25;;;17.77;;
58196;SDS011;43999;51.660;5.616;2022-12-18T06:58:36;26.23;;;19.45;;
58196;SDS011;43999;51.660;5.616;2022-12-18T07:01:05;22.85;;;18.75;;
58196;SDS011;43999;51.660;5.616;2022-12-18T07:03:37;25.85;;;20.10;;
58196;SDS011;43999;51.660;5.616;2022-12-18T07:06:12;22.95;;;18.65;;
58196;SDS011;43999;51.660;5.616;2022-12-18T07:08:45;26.02;;;18.98;;
58196;SDS011;43999;51.660;5.616;2022-12-18T07:11:13;24.55;;;19.02;;
58196;SDS011;43999;51.660;5.616;2022-12-18T07:13:42;27.42;;;19.60;;
58196;SDS011;43999;51.660;5.616;2022-12-18T07:16:14;21.80;;;18.10;;
58196;SDS011;43999;51.660;5.616;2022-12-18T07:18:52;30.98;;;19.38;;
58196;SDS011;43999;51.660;5.616;2022-12-18T07:21:21;24.85;;;19.00;;
58196;SDS011;43999;51.660;5.616;2022-12-18T07:23:50;23.55;;;18.95;;
58196;SDS011;43999;51.660;5.616;2022-12-18T07:26:18;21.95;;;18.23;;
58196;SDS011;43999;51.660;5.616;2022-12-18T07:28:47;24.48;;;18.33;;
58196;SDS011;43999;51.660;5.616;2022-12-18T07:31:18;25.08;;;20.20;;
58196;SDS011;43999;51.660;5.616;2022-12-18T07:33:48;22.13;;;18.63;;
58196;SDS011;43999;51.660;5.616;2022-12-18T07:36:16;20.95;;;17.52;;
58196;SDS011;43999;51.660;5.616;2022-12-18T07:38:46;22.17;;;17.17;;
58196;SDS011;43999;51.660;5.616;2022-12-18T07:41:14;28.70;;;20.77;;
58196;SDS011;43999;51.660;5.616;2022-12-18T07:43:42;26.33;;;19.00;;
58196;SDS011;43999;51.660;5.616;2022-12-18T07:46:10;23.55;;;17.40;;
58196;SDS011;43999;51.660;5.616;2022-12-18T07:48:43;19.85;;;16.23;;
58196;SDS011;43999;51.660;5.616;2022-12-18T07:51:15;26.23;;;20.77;;
58196;SDS011;43999;51.660;5.616;2022-12-18T07:53:44;26.25;;;19.77;;
58196;SDS011;43999;51.660;5.616;2022-12-18T07:56:18;24.35;;;18.48;;
58196;SDS011;43999;51.660;5.616;2022-12-18T07:58:56;23.60;;;18.40;;
58196;SDS011;43999;51.660;5.616;2022-12-18T08:01:24;24.35;;;20.40;;
58196;SDS011;43999;51.660;5.616;2022-12-18T08:03:51;20.00;;;15.52;;
58196;SDS011;43999;51.660;5.616;2022-12-18T08:06:19;28.58;;;18.58;;
58196;SDS011;43999;51.660;5.616;2022-12-18T08:08:53;23.98;;;17.65;;
58196;SDS011;43999;51.660;5.616;2022-12-18T08:11:22;24.25;;;18.10;;
58196;SDS011;43999;51.660;5.616;2022-12-18T08:13:52;26.48;;;19.40;;
58196;SDS011;43999;51.660;5.616;2022-12-18T08:16:20;21.15;;;17.83;;
58196;SDS011;43999;51.660;5.616;2022-12-18T08:18:51;32.00;;;19.65;;
58196;SDS011;43999;51.660;5.616;2022-12-18T08:21:23;25.67;;;18.83;;
58196;SDS011;43999;51.660;5.616;2022-12-18T08:23:55;25.60;;;19.33;;
58196;SDS011;43999;51.660;5.616;2022-12-18T08:26:27;25.85;;;17.45;;
58196;SDS011;43999;51.660;5.616;2022-12-18T08:28:58;24.40;;;18.55;;
58196;SDS011;43999;51.660;5.616;2022-12-18T08:31:26;24.10;;;18.80;;
58196;SDS011;43999;51.660;5.616;2022-12-18T08:33:56;22.50;;;16.40;;
58196;SDS011;43999;51.660;5.616;2022-12-18T08:36:24;23.15;;;18.15;;
58196;SDS011;43999;51.660;5.616;2022-12-18T08:38:52;25.63;;;17.98;;
58196;SDS011;43999;51.660;5.616;2022-12-18T08:41:20;24.10;;;16.33;;
58196;SDS011;43999;51.660;5.616;2022-12-18T08:43:48;29.63;;;17.92;;
58196;SDS011;43999;51.660;5.616;2022-12-18T08:46:38;28.60;;;18.48;;
58196;SDS011;43999;51.660;5.616;2022-12-18T08:49:08;27.35;;;19.13;;
58196;SDS011;43999;51.660;5.616;2022-12-18T08:51:37;28.63;;;18.45;;
58196;SDS011;43999;51.660;5.616;2022-12-18T08:54:06;22.08;;;18.67;;
58196;SDS011;43999;51.660;5.616;2022-12-18T08:56:33;25.52;;;16.73;;
58196;SDS011;43999;51.660;5.616;2022-12-18T08:59:01;22.33;;;17.77;;
58196;SDS011;43999;51.660;5.616;2022-12-18T09:01:30;22.50;;;17.40;;
58196;SDS011;43999;51.660;5.616;2022-12-18T09:03:58;23.90;;;19.13;;
58196;SDS011;43999;51.660;5.616;2022-12-18T09:06:26;27.98;;;18.48;;
58196;SDS011;43999;51.660;5.616;2022-12-18T09:08:53;18.15;;;15.20;;
58196;SDS011;43999;51.660;5.616;2022-12-18T09:13:50;18.98;;;16.65;;
58196;SDS011;43999;51.660;5.616;2022-12-18T09:16:18;25.20;;;19.02;;
58196;SDS011;43999;51.660;5.616;2022-12-18T09:18:46;26.73;;;18.92;;
58196;SDS011;43999;51.660;5.616;2022-12-18T09:21:16;21.27;;;18.55;;
58196;SDS011;43999;51.660;5.616;2022-12-18T09:23:50;25.75;;;17.95;;
58196;SDS011;43999;51.660;5.616;2022-12-18T09:26:19;22.10;;;18.00;;
58196;SDS011;43999;51.660;5.616;2022-12-18T09:28:51;21.67;;;17.27;;
58196;SDS011;43999;51.660;5.616;2022-12-18T09:31:20;28.40;;;18.65;;
58196;SDS011;43999;51.660;5.616;2022-12-18T09:33:48;26.25;;;16.23;;
58196;SDS011;43999;51.660;5.616;2022-12-18T09:36:16;26.38;;;18.52;;
58196;SDS011;43999;51.660;5.616;2022-12-18T09:38:44;24.33;;;18.08;;
58196;SDS011;43999;51.660;5.616;2022-12-18T09:47:03;23.88;;;17.52;;
58196;SDS011;43999;51.660;5.616;2022-12-18T09:49:50;24.25;;;19.27;;
58196;SDS011;43999;51.660;5.616;2022-12-18T09:55:28;21.77;;;17.35;;
58196;SDS011;43999;51.660;5.616;2022-12-18T09:58:11;24.13;;;16.15;;
58196;SDS011;43999;51.660;5.616;2022-12-18T10:01:09;20.35;;;17.52;;
58196;SDS011;43999;51.660;5.616;2022-12-18T10:03:44;23.92;;;18.27;;
58196;SDS011;43999;51.660;5.616;2022-12-18T10:15:31;24.77;;;16.73;;
58196;SDS011;43999;51.660;5.616;2022-12-18T10:18:38;20.85;;;15.68;;
58196;SDS011;43999;51.660;5.616;2022-12-18T10:21:14;20.38;;;15.95;;
58196;SDS011;43999;51.660;5.616;2022-12-18T10:27:10;25.10;;;17.52;;
58196;SDS011;43999;51.660;5.616;2022-12-18T10:29:43;22.90;;;17.80;;
58196;SDS011;43999;51.660;5.616;2022-12-18T10:32:16;22.15;;;18.27;;
58196;SDS011;43999;51.660;5.616;2022-12-18T10:37:26;20.65;;;15.98;;
58196;SDS011;43999;51.660;5.616;2022-12-18T10:40:09;24.75;;;17.77;;
58196;SDS011;43999;51.660;5.616;2022-12-18T10:43:01;25.90;;;18.52;;
58196;SDS011;43999;51.660;5.616;2022-12-18T10:45:39;24.73;;;19.95;;
58196;SDS011;43999;51.660;5.616;2022-12-18T10:48:22;22.95;;;17.33;;
58196;SDS011;43999;51.660;5.616;2022-12-18T10:50:50;22.63;;;16.73;;
58196;SDS011;43999;51.660;5.616;2022-12-18T10:53:38;22.00;;;15.80;;
58196;SDS011;43999;51.660;5.616;2022-12-18T10:56:09;23.55;;;16.42;;
58196;SDS011;43999;51.660;5.616;2022-12-18T10:58:37;22.92;;;18.15;;
58196;SDS011;43999;51.660;5.616;2022-12-18T11:01:13;24.25;;;18.08;;
58196;SDS011;43999;51.660;5.616;2022-12-18T11:03:58;22.55;;;17.60;;
58196;SDS011;43999;51.660;5.616;2022-12-18T11:06:29;20.48;;;15.05;;
58196;SDS011;43999;51.660;5.616;2022-12-18T11:08:57;19.33;;;17.00;;
58196;SDS011;43999;51.660;5.616;2022-12-18T11:11:39;21.83;;;16.83;;
58196;SDS011;43999;51.660;5.616;2022-12-18T11:14:12;20.77;;;18.20;;
58196;SDS011;43999;51.660;5.616;2022-12-18T11:16:47;20.58;;;17.05;;
58196;SDS011;43999;51.660;5.616;2022-12-18T11:19:37;20.40;;;16.67;;
58196;SDS011;43999;51.660;5.616;2022-12-18T11:22:21;23.85;;;17.95;;
58196;SDS011;43999;51.660;5.616;2022-12-18T11:24:56;20.95;;;18.42;;
58196;SDS011;43999;51.660;5.616;2022-12-18T11:27:48;22.55;;;16.55;;
58196;SDS011;43999;51.660;5.616;2022-12-18T11:30:28;19.65;;;16.55;;
58196;SDS011;43999;51.660;5.616;2022-12-18T11:35:39;18.05;;;14.02;;
58196;SDS011;43999;51.660;5.616;2022-12-18T11:38:31;22.58;;;17.85;;
58196;SDS011;43999;51.660;5.616;2022-12-18T11:44:13;20.40;;;14.90;;
58196;SDS011;43999;51.660;5.616;2022-12-18T11:46:51;22.10;;;16.27;;
58196;SDS011;43999;51.660;5.616;2022-12-18T11:52:18;21.13;;;16.58;;
58196;SDS011;43999;51.660;5.616;2022-12-18T11:54:57;20.30;;;15.32;;
58196;SDS011;43999;51.660;5.616;2022-12-18T11:57:31;21.10;;;18.67;;
58196;SDS011;43999;51.660;5.616;2022-12-18T12:00:27;20.30;;;15.70;;
58196;SDS011;43999;51.660;5.616;2022-12-18T12:05:54;22.35;;;18.63;;
58196;SDS011;43999;51.660;5.616;2022-12-18T12:08:57;21.35;;;16.85;;
58196;SDS011;43999;51.660;5.616;2022-12-18T12:23:26;25.27;;;17.63;;
58196;SDS011;43999;51.660;5.616;2022-12-18T12:29:36;22.65;;;17.42;;
58196;SDS011;43999;51.660;5.616;2022-12-18T12:32:47;26.55;;;18.15;;
58196;SDS011;43999;51.660;5.616;2022-12-18T12:35:34;22.85;;;16.33;;
58196;SDS011;43999;51.660;5.616;2022-12-18T12:38:28;22.20;;;16.45;;
58196;SDS011;43999;51.660;5.616;2022-12-18T12:41:18;22.35;;;17.52;;
58196;SDS011;43999;51.660;5.616;2022-12-18T12:44:13;23.55;;;16.85;;
58196;SDS011;43999;51.660;5.616;2022-12-18T12:46:49;21.42;;;18.40;;
58196;SDS011;43999;51.660;5.616;2022-12-18T12:49:24;22.02;;;17.75;;
58196;SDS011;43999;51.660;5.616;2022-12-18T12:51:58;25.13;;;16.90;;
58196;SDS011;43999;51.660;5.616;2022-12-18T12:55:17;21.58;;;18.42;;
58196;SDS011;43999;51.660;5.616;2022-12-18T13:00:30;22.58;;;15.90;;
58196;SDS011;43999;51.660;5.616;2022-12-18T13:03:23;20.75;;;16.88;;
58196;SDS011;43999;51.660;5.616;2022-12-18T13:05:56;23.35;;;16.50;;
58196;SDS011;43999;51.660;5.616;2022-12-18T13:08:31;23.63;;;17.80;;
58196;SDS011;43999;51.660;5.616;2022-12-18T13:14:29;22.52;;;18.00;;
58196;SDS011;43999;51.660;5.616;2022-12-18T13:19:51;23.70;;;16.45;;
58196;SDS011;43999;51.660;5.616;2022-12-18T13:22:43;20.60;;;17.58;;
58196;SDS011;43999;51.660;5.616;2022-12-18T13:28:12;23.67;;;15.07;;
58196;SDS011;43999;51.660;5.616;2022-12-18T13:30:42;24.20;;;15.52;;
58196;SDS011;43999;51.660;5.616;2022-12-18T13:38:23;31.73;;;18.30;;
58196;SDS011;43999;51.660;5.616;2022-12-18T13:43:54;26.38;;;16.70;;
58196;SDS011;43999;51.660;5.616;2022-12-18T13:46:27;20.90;;;15.82;;
58196;SDS011;43999;51.660;5.616;2022-12-18T13:51:44;22.08;;;16.25;;
58196;SDS011;43999;51.660;5.616;2022-12-18T13:54:32;20.33;;;16.30;;
58196;SDS011;43999;51.660;5.616;2022-12-18T13:59:57;24.65;;;20.10;;
58196;SDS011;43999;51.660;5.616;2022-12-18T14:02:38;23.15;;;17.75;;
58196;SDS011;43999;51.660;5.616;2022-12-18T14:08:11;22.15;;;16.63;;
58196;SDS011;43999;51.660;5.616;2022-12-18T14:10:41;23.75;;;18.38;;
58196;SDS011;43999;51.660;5.616;2022-12-18T14:13:15;24.13;;;18.17;;
58196;SDS011;43999;51.660;5.616;2022-12-18T14:15:58;22.45;;;18.25;;
58196;SDS011;43999;51.660;5.616;2022-12-18T14:21:24;21.35;;;16.45;;
58196;SDS011;43999;51.660;5.616;2022-12-18T14:24:13;20.40;;;16.70;;
58196;SDS011;43999;51.660;5.616;2022-12-18T14:26:45;23.13;;;17.33;;
58196;SDS011;43999;51.660;5.616;2022-12-18T14:32:07;23.77;;;17.05;;
58196;SDS011;43999;51.660;5.616;2022-12-18T14:34:50;22.20;;;17.38;;
58196;SDS011;43999;51.660;5.616;2022-12-18T14:37:23;25.10;;;16.65;;
58196;SDS011;43999;51.660;5.616;2022-12-18T14:39:57;20.95;;;15.80;;
58196;SDS011;43999;51.660;5.616;2022-12-18T14:42:36;24.25;;;21.15;;
58196;SDS011;43999;51.660;5.616;2022-12-18T14:48:18;21.88;;;16.98;;
58196;SDS011;43999;51.660;5.616;2022-12-18T14:51:06;21.90;;;17.63;;
58196;SDS011;43999;51.660;5.616;2022-12-18T14:56:28;21.98;;;19.48;;
58196;SDS011;43999;51.660;5.616;2022-12-18T14:59:00;23.10;;;17.52;;
58196;SDS011;43999;51.660;5.616;2022-12-18T15:01:37;23.90;;;19.08;;
58196;SDS011;43999;51.660;5.616;2022-12-18T15:04:31;24.83;;;18.05;;
58196;SDS011;43999;51.660;5.616;2022-12-18T15:07:09;32.55;;;20.35;;
58196;SDS011;43999;51.660;5.616;2022-12-18T15:12:41;20.95;;;18.70;;
58196;SDS011;43999;51.660;5.616;2022-12-18T15:20:44;25.73;;;19.10;;
58196;SDS011;43999;51.660;5.616;2022-12-18T15:23:22;24.83;;;19.20;;
58196;SDS011;43999;51.660;5.616;2022-12-18T15:26:12;25.38;;;19.35;;
58196;SDS011;43999;51.660;5.616;2022-12-18T15:28:51;27.58;;;20.08;;
58196;SDS011;43999;51.660;5.616;2022-12-18T15:34:08;24.80;;;19.38;;
58196;SDS011;43999;51.660;5.616;2022-12-18T15:36:44;27.23;;;21.25;;
58196;SDS011;43999;51.660;5.616;2022-12-18T15:39:12;25.45;;;18.33;;
58196;SDS011;43999;51.660;5.616;2022-12-18T15:41:39;26.38;;;20.02;;
58196;SDS011;43999;51.660;5.616;2022-12-18T15:44:27;22.85;;;19.50;;
58196;SDS011;43999;51.660;5.616;2022-12-18T15:46:55;23.13;;;18.30;;
58196;SDS011;43999;51.660;5.616;2022-12-18T15:49:22;29.48;;;20.40;;
58196;SDS011;43999;51.660;5.616;2022-12-18T15:51:59;24.25;;;17.98;;
58196;SDS011;43999;51.660;5.616;2022-12-18T15:54:28;25.85;;;20.17;;
58196;SDS011;43999;51.660;5.616;2022-12-18T15:57:24;25.80;;;19.10;;
58196;SDS011;43999;51.660;5.616;2022-12-18T15:59:53;27.38;;;21.17;;
58196;SDS011;43999;51.660;5.616;2022-12-18T16:02:24;24.80;;;18.25;;
58196;SDS011;43999;51.660;5.616;2022-12-18T16:04:52;28.67;;;21.90;;
58196;SDS011;43999;51.660;5.616;2022-12-18T16:07:20;25.20;;;19.30;;
58196;SDS011;43999;51.660;5.616;2022-12-18T16:09:51;27.42;;;22.13;;
58196;SDS011;43999;51.660;5.616;2022-12-18T16:12:21;25.50;;;18.88;;
58196;SDS011;43999;51.660;5.616;2022-12-18T16:14:50;24.88;;;18.98;;
58196;SDS011;43999;51.660;5.616;2022-12-18T16:17:18;24.73;;;18.90;;
58196;SDS011;43999;51.660;5.616;2022-12-18T16:19:46;24.27;;;20.95;;
58196;SDS011;43999;51.660;5.616;2022-12-18T16:24:50;26.35;;;19.77;;
58196;SDS011;43999;51.660;5.616;2022-12-18T16:27:21;29.08;;;18.67;;
58196;SDS011;43999;51.660;5.616;2022-12-18T16:29:50;26.13;;;19.00;;
58196;SDS011;43999;51.660;5.616;2022-12-18T16:32:18;27.45;;;21.27;;
58196;SDS011;43999;51.660;5.616;2022-12-18T16:34:49;25.35;;;19.38;;
58196;SDS011;43999;51.660;5.616;2022-12-18T16:37:16;29.75;;;21.52;;
58196;SDS011;43999;51.660;5.616;2022-12-18T16:39:44;25.75;;;19.52;;
58196;SDS011;43999;51.660;5.616;2022-12-18T16:42:13;22.70;;;18.27;;
58196;SDS011;43999;51.660;5.616;2022-12-18T16:44:45;24.38;;;21.30;;
58196;SDS011;43999;51.660;5.616;2022-12-18T16:47:16;24.17;;;19.45;;
58196;SDS011;43999;51.660;5.616;2022-12-18T16:49:44;26.90;;;22.27;;
58196;SDS011;43999;51.660;5.616;2022-12-18T16:52:12;28.23;;;19.40;;
58196;SDS011;43999;51.660;5.616;2022-12-18T16:54:39;25.52;;;21.35;;
58196;SDS011;43999;51.660;5.616;2022-12-18T16:57:08;30.35;;;19.90;;
58196;SDS011;43999;51.660;5.616;2022-12-18T16:59:39;25.17;;;18.48;;
58196;SDS011;43999;51.660;5.616;2022-12-18T17:02:12;26.92;;;19.35;;
58196;SDS011;43999;51.660;5.616;2022-12-18T17:04:49;27.27;;;19.33;;
58196;SDS011;43999;51.660;5.616;2022-12-18T17:07:18;24.23;;;18.25;;
58196;SDS011;43999;51.660;5.616;2022-12-18T17:09:46;26.30;;;19.52;;
58196;SDS011;43999;51.660;5.616;2022-12-18T17:12:16;24.80;;;18.83;;
58196;SDS011;43999;51.660;5.616;2022-12-18T17:14:44;28.63;;;19.80;;
58196;SDS011;43999;51.660;5.616;2022-12-18T17:17:12;27.60;;;21.52;;